Time;durP1;ratioP1;P1;durP2;ratioP2;P2;SDS_P1;SDS_P2;PMS_P1;PMS_P2;Temp;Humidity;BMP_temperature;BMP_pressure;BME280_temperature;BME280_humidity;BME280_pressure;Samples;Min_cycle;Max_cycle;Signal;HPM_P1;HPM_P2
2023/08/04 00:02:19;;;;;;;11.18;6.80;;;;;;;27.58;58.75;99492.22;5105360;28;20056;-24
2023/08/04 00:04:46;;;;;;;9.15;7.03;;;;;;;27.54;58.47;99490.50;5105079;28;20443;-24
2023/08/04 00:07:11;;;;;;;8.10;6.70;;;;;;;27.65;58.11;99494.34;5104970;28;20028;-24
2023/08/04 00:09:38;;;;;;;9.50;7.25;;;;;;;27.48;58.65;99489.94;5104994;28;20023;-24
2023/08/04 00:12:04;;;;;;;11.90;6.95;;;;;;;27.43;59.04;99487.44;5105051;28;20032;-25
2023/08/04 00:14:29;;;;;;;8.05;6.47;;;;;;;27.48;58.56;99489.94;5104924;28;20037;-24
2023/08/04 00:16:55;;;;;;;8.63;6.90;;;;;;;27.40;59.05;99479.91;5104999;28;20377;-25
2023/08/04 00:19:20;;;;;;;10.23;7.18;;;;;;;27.43;59.21;99490.97;5104798;28;20059;-24
2023/08/04 00:21:46;;;;;;;9.45;6.72;;;;;;;27.42;58.81;99494.88;5101921;28;20481;-25
2023/08/04 00:24:11;;;;;;;9.82;6.60;;;;;;;27.47;59.35;99493.81;5095633;28;20020;-25
2023/08/04 00:26:36;;;;;;;8.93;7.40;;;;;;;27.46;59.68;99492.22;5104391;28;20118;-24
2023/08/04 00:29:02;;;;;;;10.32;7.60;;;;;;;27.33;60.19;99501.63;5104600;28;20024;-25
2023/08/04 00:31:27;;;;;;;8.50;6.97;;;;;;;27.29;60.13;99503.44;5104869;28;20254;-27
2023/08/04 00:33:55;;;;;;;9.02;7.30;;;;;;;27.35;60.17;99502.06;5104779;28;20518;-24
2023/08/04 00:36:20;;;;;;;;;;;;;;;27.24;60.38;99499.00;5105264;28;20019;-25
2023/08/04 00:38:45;;;;;;;7.77;6.87;;;;;;;27.17;60.93;99491.34;5104954;28;20398;-25
2023/08/04 00:41:11;;;;;;;9.88;7.00;;;;;;;27.15;61.32;99501.81;5103073;28;20156;-23
2023/08/04 00:43:36;;;;;;;9.00;7.55;;;;;;;26.93;61.88;99499.56;5104659;28;20602;-24
2023/08/04 00:46:01;;;;;;;8.48;6.95;;;;;;;27.02;61.45;99505.72;5104542;28;20032;-27
2023/08/04 00:48:27;;;;;;;10.23;7.63;;;;;;;27.19;61.16;99502.72;5104795;28;20028;-28
2023/08/04 00:50:52;;;;;;;10.00;7.03;;;;;;;27.15;61.73;99501.81;5104725;28;20420;-23
2023/08/04 00:53:18;;;;;;;10.43;7.40;;;;;;;27.03;61.61;99508.13;5104466;28;20024;-24
2023/08/04 00:55:44;;;;;;;11.55;7.40;;;;;;;26.83;62.54;99506.31;5107412;28;20029;-24
2023/08/04 00:58:09;;;;;;;8.73;6.95;;;;;;;26.92;62.25;99506.19;5108674;28;20029;-23
2023/08/04 01:00:34;;;;;;;9.82;7.13;;;;;;;27.05;61.89;99505.84;5108551;28;20048;-23
2023/08/04 01:03:00;;;;;;;10.32;7.30;;;;;;;27.06;61.77;99518.38;5106598;27;20474;-23
2023/08/04 01:05:34;;;;;;;11.80;7.78;;;;;;;27.05;61.91;99510.50;5098406;28;20106;-24
2023/08/04 01:08:13;;;;;;;10.57;7.15;;;;;;;26.73;63.30;99499.34;5105799;28;20031;-23
2023/08/04 01:10:59;;;;;;;9.73;7.30;;;;;;;26.58;63.50;99497.28;5088021;28;20385;-24
2023/08/04 01:13:26;;;;;;;8.85;7.47;;;;;;;26.56;63.81;99504.97;5088114;28;20043;-23
2023/08/04 01:15:54;;;;;;;11.43;8.02;;;;;;;26.31;64.75;99507.66;5087903;28;20024;-24
2023/08/04 01:18:21;;;;;;;9.43;7.38;;;;;;;26.36;64.70;99523.88;5087461;28;20028;-24
2023/08/04 01:20:47;;;;;;;9.65;7.85;;;;;;;26.13;65.39;99525.38;5095230;28;20085;-23
2023/08/04 01:23:12;;;;;;;10.27;8.20;;;;;;;26.16;65.22;99535.66;5087729;28;20059;-23
2023/08/04 01:25:38;;;;;;;9.68;8.27;;;;;;;25.85;66.75;99528.66;5087783;28;20051;-23
2023/08/04 01:28:05;;;;;;;12.60;8.45;;;;;;;26.11;65.47;99533.13;5087924;28;20078;-24
2023/08/04 01:30:32;;;;;;;11.05;8.63;;;;;;;25.63;67.32;99532.53;5087874;28;20111;-23
2023/08/04 01:33:01;;;;;;;9.60;8.25;;;;;;;25.55;68.32;99528.72;5087736;28;20583;-28
2023/08/04 01:35:28;;;;;;;9.48;8.10;;;;;;;25.37;68.92;99528.03;5087748;28;20028;-26
2023/08/04 01:37:53;;;;;;;10.57;9.02;;;;;;;25.78;67.93;99542.03;5088150;28;20035;-23
2023/08/04 01:40:19;;;;;;;11.48;8.93;;;;;;;25.52;68.55;99539.50;5087701;28;20024;-23
2023/08/04 01:42:44;;;;;;;9.23;7.95;;;;;;;25.66;67.85;99534.56;5087626;28;20073;-25
2023/08/04 01:45:10;;;;;;;9.57;8.65;;;;;;;25.50;68.40;99541.75;5087588;28;20031;-23
2023/08/04 01:47:37;;;;;;;12.60;8.77;;;;;;;25.67;67.68;99542.44;5087546;28;20518;-23
2023/08/04 01:50:04;;;;;;;10.27;8.80;;;;;;;25.49;68.84;99542.91;5087339;28;20047;-24
2023/08/04 01:52:30;;;;;;;11.90;8.70;;;;;;;25.46;68.53;99549.84;5087646;28;20088;-29
2023/08/04 01:54:55;;;;;;;10.20;8.10;;;;;;;25.38;68.54;99545.22;5087598;28;20040;-24
2023/08/04 01:57:20;;;;;;;11.70;8.50;;;;;;;25.38;68.44;99550.69;5087111;28;20408;-23
2023/08/04 01:59:46;;;;;;;11.15;8.90;;;;;;;25.63;66.83;99546.19;5086565;28;20036;-24
2023/08/04 02:02:11;;;;;;;12.25;8.85;;;;;;;25.46;67.10;99549.84;5086515;28;20128;-23
2023/08/04 02:04:46;;;;;;;10.50;8.48;;;;;;;25.19;68.20;99549.16;5086674;28;20074;-24
2023/08/04 02:07:11;;;;;;;11.32;8.48;;;;;;;25.13;68.46;99545.03;5086201;28;20028;-23
2023/08/04 02:09:37;;;;;;;9.77;8.23;;;;;;;25.21;68.03;99549.66;5087217;28;20039;-24
2023/08/04 02:12:02;;;;;;;9.63;8.63;;;;;;;25.16;68.43;99555.25;5086652;28;20405;-23
2023/08/04 02:14:28;;;;;;;10.07;8.10;;;;;;;25.20;68.47;99555.41;5086858;28;20036;-24
2023/08/04 02:16:54;;;;;;;10.18;8.60;;;;;;;25.18;67.92;99558.47;5086558;28;20035;-23
2023/08/04 02:19:23;;;;;;;10.13;8.38;;;;;;;25.33;67.53;99559.84;5086750;28;20115;-23
2023/08/04 02:21:49;;;;;;;9.25;7.82;;;;;;;25.03;68.78;99553.59;5086733;28;20842;-24
2023/08/04 02:24:17;;;;;;;10.00;8.43;;;;;;;24.92;68.88;99560.50;5086947;28;20024;-24
2023/08/04 02:26:45;;;;;;;13.85;9.02;;;;;;;24.90;69.03;99560.03;5086881;28;20049;-24
2023/08/04 02:29:12;;;;;;;11.52;8.50;;;;;;;24.99;68.96;99560.81;5086497;28;20032;-23
2023/08/04 02:31:37;;;;;;;11.30;8.70;;;;;;;24.71;69.63;99558.50;5086584;28;20028;-25
2023/08/04 02:34:06;;;;;;;13.70;8.65;;;;;;;24.89;69.30;99558.44;5086223;28;20039;-24
2023/08/04 02:36:33;;;;;;;11.60;8.90;;;;;;;24.93;69.48;99562.09;5086316;28;20113;-24
2023/08/04 02:38:58;;;;;;;;;;;;;;;24.70;70.19;99559.63;5086937;28;20028;-25
2023/08/04 02:41:24;;;;;;;15.53;9.77;;;;;;;24.66;70.88;99564.94;5086579;28;19918;-24
2023/08/04 02:43:54;;;;;;;12.00;8.85;;;;;;;24.72;70.87;99562.81;5086527;28;20277;-23
2023/08/04 02:46:22;;;;;;;10.93;9.02;;;;;;;24.69;71.29;99555.31;5086362;28;20147;-23
2023/08/04 02:48:48;;;;;;;11.07;8.35;;;;;;;24.75;70.95;99567.63;5086266;28;20036;-24
2023/08/04 02:51:13;;;;;;;11.43;8.68;;;;;;;24.62;71.22;99574.06;5086219;28;22083;-24
2023/08/04 02:53:42;;;;;;;10.68;8.65;;;;;;;25.04;69.97;99574.25;5085913;28;20035;-23
2023/08/04 02:56:12;;;;;;;11.82;9.10;;;;;;;25.16;68.95;99581.75;5086284;28;20512;-24
2023/08/04 02:58:38;;;;;;;12.43;9.27;;;;;;;24.99;68.93;99582.66;5086244;28;20115;-23
2023/08/04 03:01:04;;;;;;;12.77;9.13;;;;;;;24.84;69.22;99589.41;5085509;28;20047;-23
2023/08/04 03:03:33;;;;;;;18.05;9.85;;;;;;;24.71;69.52;99577.59;5086127;28;20024;-25
2023/08/04 03:06:00;;;;;;;14.65;9.65;;;;;;;24.99;68.36;99577.19;5086225;28;20028;-24
2023/08/04 03:08:26;;;;;;;17.45;9.95;;;;;;;25.01;68.98;99585.84;5086288;28;20027;-23
2023/08/04 03:10:52;;;;;;;11.63;8.80;;;;;;;25.13;68.06;99583.22;5085687;28;20032;-23
2023/08/04 03:13:17;;;;;;;11.18;9.07;;;;;;;25.12;68.47;99586.28;5085792;28;20034;-24
2023/08/04 03:15:43;;;;;;;10.93;9.50;;;;;;;24.75;70.07;99589.44;5086038;28;20024;-23
2023/08/04 03:18:08;;;;;;;13.38;10.13;;;;;;;24.75;69.74;99594.09;5084882;28;20047;-24
2023/08/04 03:20:39;;;;;;;14.73;9.80;;;;;;;24.72;69.38;99601.00;5085706;28;20024;-23
2023/08/04 03:23:06;;;;;;;15.75;9.95;;;;;;;24.61;69.84;99605.19;5085108;28;20024;-23
2023/08/04 03:25:31;;;;;;;15.68;10.27;;;;;;;24.02;73.15;99605.69;5085636;28;20433;-24
2023/08/04 03:27:57;;;;;;;14.80;9.52;;;;;;;24.00;71.82;99606.00;5085431;28;20035;-25
2023/08/04 03:30:22;;;;;;;16.58;12.13;;;;;;;24.44;70.07;99606.81;5085875;28;20020;-23
2023/08/04 03:32:47;;;;;;;37.47;14.40;;;;;;;24.69;68.96;99612.56;5085268;28;20047;-25
2023/08/04 03:35:13;;;;;;;21.45;11.75;;;;;;;24.44;70.12;99608.75;5085245;28;20028;-24
2023/08/04 03:37:39;;;;;;;16.05;10.95;;;;;;;24.43;70.55;99610.63;5085105;28;20082;-25
2023/08/04 03:40:06;;;;;;;14.07;11.90;;;;;;;24.29;71.58;99604.56;5085168;28;20024;-24
2023/08/04 03:42:31;;;;;;;13.15;11.43;;;;;;;24.34;72.13;99612.59;5085326;28;20032;-24
2023/08/04 03:44:57;;;;;;;14.70;11.75;;;;;;;24.38;72.03;99605.38;5085179;28;20039;-23
2023/08/04 03:47:22;;;;;;;14.57;10.88;;;;;;;24.19;72.98;99621.22;5085190;28;20020;-24
2023/08/04 03:49:47;;;;;;;19.60;10.30;;;;;;;24.19;73.18;99626.69;5085340;28;20032;-23
2023/08/04 03:52:13;;;;;;;16.90;11.45;;;;;;;24.56;71.91;99619.81;5085355;28;20028;-24
2023/08/04 03:54:41;;;;;;;13.77;10.20;;;;;;;24.97;70.00;99628.53;5085048;28;20038;-24
2023/08/04 03:57:06;;;;;;;15.80;11.70;;;;;;;24.57;71.20;99632.31;5084739;28;20047;-25
2023/08/04 03:59:32;;;;;;;14.52;10.80;;;;;;;24.59;71.09;99621.88;5084863;28;20016;-26
2023/08/04 04:01:57;;;;;;;13.70;11.27;;;;;;;24.41;71.78;99634.69;5084778;28;20052;-24
2023/08/04 04:04:23;;;;;;;16.38;11.43;;;;;;;24.92;70.11;99645.06;5084854;28;20428;-24
2023/08/04 04:06:48;;;;;;;18.73;12.52;;;;;;;24.71;71.00;99648.47;5084634;28;20038;-24
2023/08/04 04:09:14;;;;;;;17.48;11.48;;;;;;;24.50;71.47;99636.63;5084636;28;20035;-25
2023/08/04 04:11:40;;;;;;;13.98;11.73;;;;;;;24.44;71.75;99639.50;5084678;28;20055;-25
2023/08/04 04:14:06;;;;;;;14.77;11.18;;;;;;;24.34;72.29;99642.56;5084678;28;20028;-25
2023/08/04 04:16:33;;;;;;;12.68;11.18;;;;;;;24.27;72.34;99644.94;5085028;28;20060;-28
2023/08/04 04:18:58;;;;;;;13.70;11.55;;;;;;;24.28;72.54;99643.84;5084669;28;20511;-25
2023/08/04 04:21:24;;;;;;;16.55;12.20;;;;;;;24.70;70.93;99635.97;5084227;28;20021;-25
2023/08/04 04:23:49;;;;;;;15.48;10.90;;;;;;;24.49;71.92;99638.53;5084167;28;20528;-25
2023/08/04 04:26:15;;;;;;;12.65;11.13;;;;;;;24.53;71.32;99636.00;5084518;28;20027;-26
2023/08/04 04:28:40;;;;;;;12.90;10.88;;;;;;;24.70;70.83;99630.50;5084348;28;20032;-25
2023/08/04 04:31:05;;;;;;;14.32;12.25;;;;;;;24.73;71.32;99640.78;5084094;28;20028;-25
2023/08/04 04:33:31;;;;;;;14.15;12.00;;;;;;;24.82;70.67;99633.38;5084545;28;20043;-27
2023/08/04 04:35:56;;;;;;;16.38;12.05;;;;;;;25.01;70.28;99640.41;5084497;28;20020;-24
2023/08/04 04:38:27;;;;;;;13.75;11.60;;;;;;;24.82;71.44;99636.09;5084042;28;20140;-25
2023/08/04 04:41:01;;;;;;;16.65;11.88;;;;;;;25.08;70.15;99627.03;5084345;28;20040;-25
2023/08/04 04:43:27;;;;;;;14.02;11.32;;;;;;;25.13;70.18;99637.78;5084074;28;20500;-24
2023/08/04 04:45:56;;;;;;;17.95;11.63;;;;;;;25.30;69.23;99641.59;5084382;28;20032;-24
2023/08/04 04:48:23;;;;;;;17.00;10.60;;;;;;;25.38;69.14;99643.50;5084067;28;20012;-24
2023/08/04 04:50:52;;;;;;;12.43;11.15;;;;;;;25.59;68.20;99649.78;5084202;28;20024;-26
2023/08/04 04:53:18;;;;;;;15.00;11.23;;;;;;;25.60;68.18;99645.13;5084252;28;20032;-24
2023/08/04 04:55:43;;;;;;;15.15;10.88;;;;;;;25.47;68.24;99636.06;5083685;28;20024;-24
2023/08/04 04:58:12;;;;;;;15.10;11.30;;;;;;;25.38;68.07;99648.97;5084176;28;20527;-24
2023/08/04 05:00:37;;;;;;;18.02;11.23;;;;;;;25.95;66.70;99655.88;5084102;28;20040;-24
2023/08/04 05:03:06;;;;;;;14.43;10.93;;;;;;;25.83;66.53;99659.31;5084259;28;20051;-26
2023/08/04 05:05:32;;;;;;;14.07;10.73;;;;;;;25.79;66.49;99652.91;5082309;28;20293;-24
2023/08/04 05:08:01;;;;;;;12.38;10.60;;;;;;;25.51;67.14;99653.38;5084281;28;20032;-23
2023/08/04 05:10:32;;;;;;;14.52;10.45;;;;;;;25.87;66.62;99654.78;5084135;28;20429;-23
2023/08/04 05:12:57;;;;;;;13.30;10.90;;;;;;;25.97;65.72;99654.44;5083881;28;20146;-25
2023/08/04 05:15:23;;;;;;;13.23;10.57;;;;;;;26.24;65.27;99661.28;5084347;28;20483;-24
2023/08/04 05:17:48;;;;;;;16.88;10.55;;;;;;;26.33;64.57;99666.69;5083717;28;20405;-24
2023/08/04 05:20:14;;;;;;;13.30;10.32;;;;;;;26.58;63.55;99664.06;5083856;28;20031;-24
2023/08/04 05:22:40;;;;;;;11.48;10.27;;;;;;;26.42;65.17;99664.69;5083819;28;20035;-23
2023/08/04 05:25:07;;;;;;;12.93;10.48;;;;;;;26.55;63.80;99665.53;5083846;28;20024;-24
2023/08/04 05:27:35;;;;;;;11.15;9.77;;;;;;;26.75;63.65;99666.66;5083706;28;20024;-29
2023/08/04 05:30:01;;;;;;;12.27;9.85;;;;;;;26.56;63.46;99661.66;5084169;28;20070;-24
2023/08/04 05:32:27;;;;;;;14.45;10.82;;;;;;;26.95;62.52;99667.75;5083637;28;20036;-24
2023/08/04 05:34:53;;;;;;;13.07;9.77;;;;;;;27.06;62.01;99662.63;5083732;28;20047;-25
2023/08/04 05:37:18;;;;;;;12.05;9.77;;;;;;;27.33;61.61;99674.09;5083491;28;20032;-24
2023/08/04 05:39:44;;;;;;;10.98;9.77;;;;;;;27.45;60.10;99679.59;5083805;28;20027;-24
2023/08/04 05:42:09;;;;;;;12.18;8.98;;;;;;;27.70;59.43;99676.84;5085202;28;20039;-23
2023/08/04 05:44:34;;;;;;;12.68;9.02;;;;;;;27.75;59.66;99679.38;5087432;28;20115;-24
2023/08/04 05:47:00;;;;;;;10.98;9.27;;;;;;;27.76;57.94;99675.47;5087064;28;20024;-26
2023/08/04 05:49:25;;;;;;;11.82;9.35;;;;;;;27.93;57.79;99680.75;5087105;28;20749;-23
2023/08/04 05:51:51;;;;;;;12.88;9.50;;;;;;;28.04;58.50;99681.84;5087392;28;20432;-24
2023/08/04 05:54:17;;;;;;;10.40;8.93;;;;;;;28.07;56.52;99685.03;5086970;28;20545;-24
2023/08/04 05:56:42;;;;;;;14.57;9.40;;;;;;;28.08;56.87;99681.16;5087087;28;20024;-24
2023/08/04 05:59:10;;;;;;;12.20;9.35;;;;;;;28.04;56.24;99670.09;5087152;28;20119;-29
2023/08/04 06:01:35;;;;;;;13.10;9.10;;;;;;;28.23;55.35;99683.97;5086635;28;20089;-24
2023/08/04 06:04:01;;;;;;;11.63;10.00;;;;;;;28.40;54.47;99682.91;5087320;28;20032;-26
2023/08/04 06:06:27;;;;;;;11.98;8.88;;;;;;;28.54;54.64;99673.50;5087312;28;20085;-24
2023/08/04 06:08:54;;;;;;;11.55;8.80;;;;;;;28.68;53.50;99673.09;5086637;28;20082;-25
2023/08/04 06:11:21;;;;;;;11.07;8.95;;;;;;;28.55;54.79;99672.38;5086896;28;20023;-24
2023/08/04 06:13:47;;;;;;;11.75;9.65;;;;;;;28.55;54.29;99666.88;5087239;28;20028;-25
2023/08/04 06:16:12;;;;;;;10.68;8.88;;;;;;;28.76;53.72;99672.94;5086774;28;20051;-26
2023/08/04 06:18:38;;;;;;;10.95;8.85;;;;;;;28.98;53.52;99674.31;5087169;28;20085;-24
2023/08/04 06:21:06;;;;;;;11.68;8.93;;;;;;;28.99;53.17;99662.19;5086963;28;20122;-24
2023/08/04 06:23:34;;;;;;;11.02;8.65;;;;;;;28.90;52.65;99675.28;5087068;28;20024;-24
2023/08/04 06:26:00;;;;;;;12.43;9.32;;;;;;;29.35;52.63;99665.06;5087120;28;20255;-23
2023/08/04 06:28:25;;;;;;;12.68;8.90;;;;;;;29.62;51.77;99669.63;5086878;28;20850;-24
2023/08/04 06:30:50;;;;;;;10.52;8.27;;;;;;;29.70;51.58;99675.28;5086589;28;20036;-24
2023/08/04 06:33:16;;;;;;;12.45;8.98;;;;;;;29.95;50.92;99668.41;5086353;28;20107;-25
2023/08/04 06:35:44;;;;;;;8.95;8.05;;;;;;;29.99;51.08;99671.25;5086897;28;20123;-26
2023/08/04 06:38:09;;;;;;;11.25;8.23;;;;;;;30.13;49.76;99677.06;5086513;28;20110;-25
2023/08/04 06:40:35;;;;;;;10.65;8.13;;;;;;;30.19;51.28;99663.84;5086566;28;20032;-29
2023/08/04 06:43:02;;;;;;;11.50;8.23;;;;;;;30.28;48.69;99666.34;5086309;28;20103;-25
2023/08/04 06:45:28;;;;;;;9.43;8.00;;;;;;;30.11;48.34;99670.34;5086430;28;20043;-24
2023/08/04 06:47:54;;;;;;;10.27;8.65;;;;;;;30.52;47.78;99665.31;5086463;28;20032;-25
2023/08/04 06:50:19;;;;;;;10.30;8.02;;;;;;;30.60;47.28;99662.31;5086351;28;20059;-24
2023/08/04 06:52:45;;;;;;;10.65;8.32;;;;;;;30.71;46.68;99668.06;5085811;28;20027;-25
2023/08/04 06:55:10;;;;;;;9.40;8.23;;;;;;;30.72;47.65;99669.63;5086126;28;20031;-25
2023/08/04 06:57:36;;;;;;;10.57;8.20;;;;;;;30.98;44.68;99659.91;5085957;28;20420;-23
2023/08/04 07:00:02;;;;;;;9.15;7.97;;;;;;;30.58;46.50;99663.84;5085403;28;20139;-23
2023/08/04 07:02:28;;;;;;;11.07;8.77;;;;;;;30.63;47.10;99660.81;5085852;28;20066;-23
2023/08/04 07:04:55;;;;;;;10.52;7.97;;;;;;;30.85;47.36;99656.47;5086049;28;20107;-23
2023/08/04 07:07:21;;;;;;;9.93;8.48;;;;;;;30.77;47.00;99655.56;5085678;28;20499;-24
2023/08/04 07:09:46;;;;;;;12.20;8.45;;;;;;;30.81;46.18;99661.94;5085480;28;20020;-24
2023/08/04 07:12:12;;;;;;;11.77;9.88;;;;;;;31.01;46.66;99661.91;5085873;28;20089;-24
2023/08/04 07:14:40;;;;;;;11.65;8.90;;;;;;;31.28;46.71;99661.97;5085574;28;20028;-25
2023/08/04 07:17:05;;;;;;;9.52;8.45;;;;;;;31.30;44.64;99656.88;5085538;28;20032;-28
2023/08/04 07:19:31;;;;;;;12.57;11.30;;;;;;;31.39;46.02;99657.44;5085743;28;20058;-23
2023/08/04 07:21:56;;;;;;;10.88;8.75;;;;;;;31.30;45.48;99662.38;5085417;28;20461;-24
2023/08/04 07:24:22;;;;;;;9.68;8.38;;;;;;;31.38;45.35;99656.63;5085632;28;20023;-24
2023/08/04 07:26:47;;;;;;;10.85;8.90;;;;;;;31.79;45.27;99665.16;5084257;28;20546;-24
2023/08/04 07:29:13;;;;;;;9.57;8.25;;;;;;;31.77;44.67;99655.66;5084800;28;20028;-24
2023/08/04 07:31:39;;;;;;;9.77;8.48;;;;;;;31.69;45.94;99660.28;5092175;28;20032;-23
2023/08/04 07:34:04;;;;;;;19.80;9.23;;;;;;;31.66;46.47;99665.75;5089122;28;20035;-23
2023/08/04 07:36:29;;;;;;;12.25;8.57;;;;;;;31.93;44.40;99670.06;5085248;28;20047;-24
2023/08/04 07:38:55;;;;;;;10.88;8.30;;;;;;;32.00;44.49;99653.66;5085352;28;20028;-26
2023/08/04 07:41:22;;;;;;;10.50;8.73;;;;;;;32.14;44.30;99658.56;5085085;28;20032;-26
2023/08/04 07:43:50;;;;;;;9.68;8.20;;;;;;;32.19;43.55;99660.19;5084548;28;20039;-25
2023/08/04 07:46:19;;;;;;;11.32;8.95;;;;;;;32.27;44.71;99659.09;5084837;28;20451;-24
2023/08/04 07:48:45;;;;;;;9.43;8.25;;;;;;;32.65;42.39;99659.16;5084610;28;20523;-26
2023/08/04 07:51:13;;;;;;;28.88;25.73;;;;;;;32.37;43.83;99661.19;5084675;28;20024;-24
2023/08/04 07:53:38;;;;;;;12.40;10.38;;;;;;;32.62;43.94;99661.50;5084887;28;20051;-25
2023/08/04 07:56:03;;;;;;;9.63;8.63;;;;;;;32.83;43.60;99657.38;5097242;28;20388;-25
2023/08/04 07:58:29;;;;;;;12.20;8.38;;;;;;;32.97;41.72;99656.72;5105431;28;20478;-24
2023/08/04 08:00:59;;;;;;;10.65;8.60;;;;;;;33.05;41.94;99654.81;5105186;28;20825;-25
2023/08/04 08:03:24;;;;;;;11.43;8.75;;;;;;;33.37;42.20;99650.38;5105187;28;20088;-24
2023/08/04 08:05:50;;;;;;;10.15;8.52;;;;;;;33.47;41.85;99654.41;5104303;28;20028;-26
2023/08/04 08:08:17;;;;;;;13.25;11.30;;;;;;;33.49;40.91;99652.03;5097271;28;20511;-25
2023/08/04 08:10:42;;;;;;;10.10;8.90;;;;;;;33.80;40.74;99644.38;5084560;28;20082;-24
2023/08/04 08:13:08;;;;;;;10.07;9.02;;;;;;;33.96;40.46;99653.16;5084457;28;20039;-25
2023/08/04 08:15:35;;;;;;;10.93;8.60;;;;;;;34.05;39.99;99641.72;5084560;28;20032;-24
2023/08/04 08:18:03;;;;;;;11.40;8.93;;;;;;;34.21;40.00;99655.25;5084574;28;20127;-25
2023/08/04 08:20:31;;;;;;;11.55;8.73;;;;;;;34.13;38.58;99646.13;5084662;28;20028;-24
2023/08/04 08:22:56;;;;;;;9.35;8.23;;;;;;;34.34;38.00;99645.41;5084448;28;20063;-25
2023/08/04 08:25:22;;;;;;;13.70;8.68;;;;;;;34.41;38.36;99642.69;5084008;28;20115;-25
2023/08/04 08:27:48;;;;;;;10.52;8.55;;;;;;;34.40;38.62;99637.53;5084179;28;20570;-24
2023/08/04 08:30:13;;;;;;;13.48;8.30;;;;;;;34.45;37.90;99642.69;5102227;28;20031;-24
2023/08/04 08:32:39;;;;;;;10.35;8.20;;;;;;;34.93;37.17;99636.84;5103914;28;20031;-24
2023/08/04 08:35:05;;;;;;;13.45;8.68;;;;;;;34.73;37.31;99632.88;5103519;28;20016;-24
2023/08/04 08:37:30;;;;;;;9.90;8.27;;;;;;;34.85;36.47;99631.72;5104149;28;20024;-25
2023/08/04 08:39:55;;;;;;;11.75;8.70;;;;;;;34.99;36.37;99628.94;5104014;28;20042;-24
2023/08/04 08:42:22;;;;;;;9.57;8.38;;;;;;;35.16;35.78;99628.16;5104183;28;20051;-24
2023/08/04 08:44:48;;;;;;;8.87;7.87;;;;;;;35.07;35.85;99625.00;5104290;28;20039;-24
2023/08/04 08:47:14;;;;;;;9.85;7.72;;;;;;;35.05;35.49;99621.81;5103995;28;20084;-24
2023/08/04 08:49:55;;;;;;;10.25;7.70;;;;;;;35.27;34.73;99621.81;5104076;28;20035;-25
2023/08/04 08:52:24;;;;;;;9.35;6.90;;;;;;;35.60;33.10;99626.16;5104079;28;20036;-26
2023/08/04 08:54:50;;;;;;;8.68;7.22;;;;;;;35.67;33.30;99617.03;5104190;28;20030;-24
2023/08/04 08:57:16;;;;;;;11.40;7.88;;;;;;;35.62;33.25;99609.91;5104253;28;20024;-24
2023/08/04 08:59:42;;;;;;;10.38;7.55;;;;;;;35.87;35.36;99601.50;5104237;28;20041;-24
2023/08/04 09:02:08;;;;;;;10.20;7.40;;;;;;;36.19;33.56;99595.06;5103900;28;20052;-25
2023/08/04 09:04:36;;;;;;;8.98;7.53;;;;;;;36.26;32.54;99597.78;5104341;28;20059;-24
2023/08/04 09:07:02;;;;;;;7.22;6.32;;;;;;;36.60;30.57;99600.75;5104365;28;20089;-24
2023/08/04 09:09:30;;;;;;;7.25;6.28;;;;;;;36.40;29.83;99599.69;5104330;28;20035;-24
2023/08/04 09:11:58;;;;;;;8.27;6.75;;;;;;;36.46;31.23;99594.50;5104101;28;20032;-25
2023/08/04 09:14:24;;;;;;;8.68;6.43;;;;;;;36.64;31.00;99588.84;5104317;28;20034;-25
2023/08/04 09:16:52;;;;;;;8.75;6.70;;;;;;;36.35;29.77;99581.50;5105266;28;20028;-24
2023/08/04 09:19:17;;;;;;;13.57;6.78;;;;;;;36.25;30.19;99584.31;5108554;28;20507;-25
2023/08/04 09:21:43;;;;;;;11.15;6.90;;;;;;;36.42;29.38;99582.63;5107822;28;20027;-28
2023/08/04 09:24:10;;;;;;;11.13;6.90;;;;;;;36.68;30.21;99576.53;5107773;28;20016;-26
2023/08/04 09:26:45;;;;;;;8.45;6.55;;;;;;;36.64;29.39;99583.28;5108175;28;20119;-27
2023/08/04 09:29:15;;;;;;;9.27;6.88;;;;;;;36.91;29.40;99569.59;5108262;28;20031;-25
2023/08/04 09:31:42;;;;;;;9.45;7.30;;;;;;;36.97;28.30;99567.94;5108154;28;20106;-24
2023/08/04 09:34:09;;;;;;;7.57;6.75;;;;;;;37.35;27.39;99573.56;5108116;28;20027;-25
2023/08/04 09:36:42;;;;;;;;;;;;;;;37.51;27.86;99573.00;5108408;28;20035;-24
2023/08/04 09:39:09;;;;;;;7.85;6.75;;;;;;;37.16;27.65;99564.59;5107637;27;19908;-24
2023/08/04 09:41:52;;;;;;;13.95;10.45;;;;;;;37.39;28.07;99554.84;5108068;28;20153;-27
2023/08/04 09:44:17;;;;;;;8.52;6.97;;;;;;;37.69;28.02;99556.13;5107684;28;20024;-24
2023/08/04 09:46:53;;;;;;;9.98;7.93;;;;;;;37.51;28.67;99568.22;5107754;28;20063;-23
2023/08/04 09:49:19;;;;;;;13.02;10.65;;;;;;;37.46;28.06;99560.34;5107682;27;20044;-24
2023/08/04 09:51:49;;;;;;;10.27;7.45;;;;;;;37.95;27.01;99551.81;5106529;27;20042;-25
2023/08/04 09:54:17;;;;;;;11.48;7.68;;;;;;;37.99;27.51;99545.00;5107329;28;20028;-25
2023/08/04 09:56:43;;;;;;;9.05;6.93;;;;;;;38.02;26.70;99553.72;5107284;28;20020;-25
2023/08/04 09:59:11;;;;;;;8.70;6.57;;;;;;;38.26;28.11;99535.88;5107650;28;20020;-23
2023/08/04 10:01:39;;;;;;;11.23;7.22;;;;;;;38.47;27.68;99542.34;5107101;28;20070;-26
2023/08/04 10:04:05;;;;;;;9.20;6.72;;;;;;;38.27;27.29;99542.25;5107441;27;20027;-23
2023/08/04 10:06:33;;;;;;;9.23;7.32;;;;;;;38.06;26.96;99537.78;5106813;28;20836;-24
2023/08/04 10:08:59;;;;;;;8.88;7.47;;;;;;;38.37;26.14;99544.88;5107507;28;20023;-23
2023/08/04 10:11:31;;;;;;;10.10;7.05;;;;;;;38.47;26.96;99542.34;5107602;27;20027;-24
2023/08/04 10:14:00;;;;;;;9.38;7.15;;;;;;;38.89;25.97;99545.66;5107073;28;20023;-24
2023/08/04 10:16:31;;;;;;;8.75;6.95;;;;;;;38.91;25.80;99530.09;5107344;28;20551;-24
2023/08/04 10:19:05;;;;;;;9.82;7.13;;;;;;;38.60;26.13;99537.78;5107187;27;20639;-24
2023/08/04 10:21:39;;;;;;;10.20;7.30;;;;;;;38.64;25.56;99537.72;5107131;28;20481;-25
2023/08/04 10:24:07;;;;;;;10.68;6.78;;;;;;;38.58;24.89;99538.22;5107415;28;20122;-24
2023/08/04 10:26:37;;;;;;;7.57;6.88;;;;;;;38.41;25.00;99539.25;5107161;28;20018;-25
2023/08/04 10:29:07;;;;;;;9.20;7.68;;;;;;;38.62;25.13;99529.78;5106486;28;20050;-24
2023/08/04 10:31:52;;;;;;;9.35;7.20;;;;;;;38.72;24.69;99531.63;5107149;28;20023;-25
2023/08/04 10:34:38;;;;;;;9.98;7.55;;;;;;;39.23;24.97;99530.72;5106886;28;20062;-23
2023/08/04 10:37:17;;;;;;;10.15;7.72;;;;;;;39.11;23.99;99534.91;5107048;28;20038;-23
2023/08/04 10:39:57;;;;;;;10.38;7.28;;;;;;;39.13;24.09;99538.06;5106956;28;20078;-23
2023/08/04 10:42:24;;;;;;;10.27;7.00;;;;;;;39.66;25.42;99530.69;5106546;28;20084;-23
2023/08/04 10:45:03;;;;;;;9.70;6.60;;;;;;;39.98;24.91;99521.63;5106423;28;20030;-29
2023/08/04 10:47:35;;;;;;;7.00;6.30;;;;;;;39.74;23.19;99520.16;5106499;28;20517;-24
2023/08/04 10:50:04;;;;;;;8.15;6.72;;;;;;;39.70;23.54;99516.66;5106333;28;20016;-26
2023/08/04 10:52:33;;;;;;;10.10;6.22;;;;;;;40.29;24.05;99518.53;5106178;28;20031;-23
2023/08/04 10:54:59;;;;;;;7.95;5.97;;;;;;;40.35;21.72;99514.00;5106757;28;20046;-23
2023/08/04 10:57:31;;;;;;;11.27;6.43;;;;;;;39.58;22.41;99518.91;5106419;28;20948;-24
2023/08/04 11:00:05;;;;;;;14.05;8.15;;;;;;;39.73;23.13;99511.00;5106383;28;20270;-23
2023/08/04 11:02:34;;;;;;;8.43;6.57;;;;;;;40.35;21.63;99502.84;5105992;28;20042;-23
2023/08/04 11:05:07;;;;;;;8.35;6.20;;;;;;;40.19;21.94;99500.00;5106360;28;20031;-23
2023/08/04 11:07:34;;;;;;;8.07;6.30;;;;;;;39.88;21.95;99503.13;5106408;27;20543;-23
2023/08/04 11:10:04;;;;;;;7.75;6.40;;;;;;;39.93;21.91;99497.03;5105886;28;20020;-24
2023/08/04 11:12:31;;;;;;;8.45;6.60;;;;;;;39.94;21.60;99489.44;5106119;28;20035;-24
2023/08/04 11:14:59;;;;;;;7.43;6.43;;;;;;;40.24;22.32;99491.13;5105640;27;20055;-23
2023/08/04 11:17:25;;;;;;;9.50;6.28;;;;;;;40.49;21.20;99495.34;5106002;28;20027;-24
2023/08/04 11:19:50;;;;;;;9.93;6.43;;;;;;;40.05;21.94;99478.00;5106021;28;20019;-24
2023/08/04 11:22:21;;;;;;;8.27;6.23;;;;;;;40.24;21.35;99479.94;5106075;28;20023;-25
2023/08/04 11:24:49;;;;;;;7.57;6.20;;;;;;;39.84;22.23;99479.25;5105769;28;20027;-23
2023/08/04 11:27:15;;;;;;;7.53;6.63;;;;;;;40.25;21.81;99475.16;5105841;28;20027;-24